createdAt,value
2022-12-26T00:02:16.750Z,12.13
2022-12-26T00:04:49.476Z,11.67
2022-12-26T00:07:21.027Z,12.20
2022-12-26T00:09:49.253Z,12.67
2022-12-26T00:12:17.351Z,13.17
2022-12-26T00:14:45.418Z,12.63
2022-12-26T00:17:13.486Z,13.13
2022-12-26T00:19:41.587Z,12.67
2022-12-26T00:22:10.964Z,14.97
2022-12-26T00:24:39.049Z,14.20
2022-12-26T00:27:07.133Z,13.00
2022-12-26T00:29:35.190Z,14.13
2022-12-26T00:32:03.313Z,14.37
2022-12-26T00:34:31.557Z,14.80
2022-12-26T00:36:59.615Z,15.87
2022-12-26T00:39:29.030Z,15.07
2022-12-26T00:41:57.128Z,14.60
2022-12-26T00:44:25.185Z,15.37
2022-12-26T00:46:53.236Z,15.40
2022-12-26T00:49:21.473Z,14.93
2022-12-26T00:51:49.531Z,14.13
2022-12-26T00:54:17.601Z,14.83
2022-12-26T00:56:47.114Z,16.30
2022-12-26T00:59:15.204Z,14.63
2022-12-26T01:01:43.510Z,14.87
2022-12-26T01:04:11.785Z,14.63
2022-12-26T01:06:39.884Z,15.67
2022-12-26T01:09:08.043Z,16.10
2022-12-26T01:11:41.878Z,16.43
2022-12-26T01:14:13.537Z,15.50
2022-12-26T01:16:43.170Z,15.83
2022-12-26T01:19:12.122Z,15.40
2022-12-26T01:21:40.282Z,15.20
2022-12-26T01:24:09.064Z,16.67
2022-12-26T01:26:37.163Z,15.00
2022-12-26T01:29:05.279Z,15.40
2022-12-26T01:31:34.723Z,16.67
2022-12-26T01:34:02.846Z,16.40
2022-12-26T01:36:30.923Z,17.33
2022-12-26T01:38:58.972Z,16.13
2022-12-26T01:41:28.089Z,15.57
2022-12-26T01:43:58.688Z,17.43
2022-12-26T01:46:32.116Z,16.23
2022-12-26T01:49:05.256Z,17.00
2022-12-26T01:51:37.953Z,14.77
2022-12-26T01:54:41.013Z,16.30
2022-12-26T01:56:57.403Z,16.10
2022-12-26T01:59:29.684Z,16.50
2022-12-26T02:01:59.985Z,15.07
2022-12-26T02:04:52.653Z,16.53
2022-12-26T02:07:20.862Z,15.90
2022-12-26T02:09:49.035Z,15.83
2022-12-26T02:12:34.407Z,16.53
2022-12-26T02:15:08.846Z,16.60
2022-12-26T02:17:38.566Z,16.17
2022-12-26T02:20:18.213Z,17.30
2022-12-26T02:23:21.701Z,17.80
2022-12-26T02:26:16.687Z,17.73
2022-12-26T02:29:31.642Z,17.93
2022-12-26T02:32:07.898Z,18.37
2022-12-26T02:35:31.992Z,19.03
2022-12-26T02:38:10.056Z,18.30
2022-12-26T02:40:51.099Z,20.63
2022-12-26T02:43:27.177Z,19.90
2022-12-26T02:46:20.985Z,19.20
2022-12-26T02:48:58.808Z,21.23
2022-12-26T02:51:57.713Z,20.87
2022-12-26T02:54:50.263Z,19.47
2022-12-26T02:57:38.697Z,19.83
2022-12-26T03:08:47.285Z,19.90
2022-12-26T03:11:38.542Z,20.00
2022-12-26T03:14:14.876Z,21.17
2022-12-26T03:17:13.363Z,21.07
2022-12-26T03:19:58.395Z,21.50
2022-12-26T03:22:33.305Z,22.43
2022-12-26T03:25:23.511Z,21.43
2022-12-26T03:27:51.674Z,23.17
2022-12-26T03:30:37.074Z,21.67
2022-12-26T03:33:05.477Z,21.67
2022-12-26T03:35:34.387Z,21.03
2022-12-26T03:38:08.749Z,19.93
2022-12-26T03:48:44.872Z,20.60
2022-12-26T03:51:35.935Z,18.87
2022-12-26T03:54:28.051Z,19.27
2022-12-26T03:57:18.374Z,19.83
2022-12-26T04:00:14.114Z,19.70
2022-12-26T04:03:01.447Z,19.07
2022-12-26T04:05:49.359Z,19.43
2022-12-26T04:08:39.952Z,18.43
2022-12-26T04:11:32.607Z,18.50
2022-12-26T04:14:24.075Z,18.20
2022-12-26T04:17:14.578Z,19.40
2022-12-26T04:19:58.337Z,19.23
2022-12-26T04:22:54.263Z,19.30
2022-12-26T04:25:50.380Z,19.70
2022-12-26T04:28:37.484Z,19.07
2022-12-26T04:31:30.095Z,17.13
2022-12-26T04:45:32.850Z,15.73
2022-12-26T04:48:18.441Z,15.80
2022-12-26T04:50:54.166Z,14.40
2022-12-26T04:53:22.434Z,14.67
2022-12-26T04:55:50.529Z,13.17
2022-12-26T04:58:18.749Z,12.53
2022-12-26T05:00:48.165Z,12.27
2022-12-26T05:03:33.854Z,12.43
2022-12-26T05:06:19.847Z,11.07
2022-12-26T05:09:06.474Z,10.30
2022-12-26T05:11:35.976Z,9.47
2022-12-26T05:14:04.147Z,9.10
2022-12-26T05:16:51.182Z,8.93
2022-12-26T05:19:36.559Z,8.30
2022-12-26T05:22:23.598Z,8.33
2022-12-26T05:25:09.808Z,8.47
2022-12-26T05:27:57.561Z,7.97
2022-12-26T05:30:26.003Z,7.47
2022-12-26T05:33:12.905Z,7.53
2022-12-26T05:35:41.558Z,7.37
2022-12-26T05:38:11.758Z,6.90
2022-12-26T05:40:39.870Z,6.50
2022-12-26T05:43:07.899Z,6.53
2022-12-26T05:45:35.993Z,6.47
2022-12-26T05:48:05.679Z,6.77
2022-12-26T05:50:33.743Z,6.33
2022-12-26T05:53:01.853Z,6.57
2022-12-26T05:55:29.969Z,6.43
2022-12-26T05:58:00.369Z,6.00
2022-12-26T06:00:29.257Z,6.20
2022-12-26T06:02:57.457Z,6.40
2022-12-26T06:05:27.154Z,6.60
2022-12-26T06:07:55.438Z,6.37
2022-12-26T06:10:23.508Z,6.17
2022-12-26T06:12:51.578Z,6.50
2022-12-26T06:15:19.654Z,7.10
2022-12-26T06:17:48.849Z,6.77
2022-12-26T06:20:17.026Z,6.40
2022-12-26T06:22:46.457Z,6.13
2022-12-26T06:25:14.972Z,5.97
2022-12-26T06:27:44.222Z,5.83
2022-12-26T06:30:13.000Z,5.73
2022-12-26T06:32:41.095Z,6.57
2022-12-26T06:35:09.661Z,6.60
2022-12-26T06:37:37.722Z,6.23
2022-12-26T06:40:08.769Z,5.93
2022-12-26T06:42:36.822Z,6.17
2022-12-26T06:45:05.854Z,6.50
2022-12-26T06:47:33.941Z,6.07
2022-12-26T06:50:01.998Z,6.90
2022-12-26T06:52:30.089Z,7.30
2022-12-26T06:54:58.857Z,7.47
2022-12-26T06:57:28.343Z,6.60
2022-12-26T06:59:56.680Z,6.67
2022-12-26T07:02:24.930Z,7.13
2022-12-26T07:04:53.166Z,7.60
2022-12-26T07:07:21.283Z,7.07
2022-12-26T07:09:49.363Z,6.70
2022-12-26T07:12:20.784Z,6.93
2022-12-26T07:14:50.308Z,7.20
2022-12-26T07:17:18.349Z,7.00
2022-12-26T07:19:46.397Z,7.30
2022-12-26T07:22:14.467Z,7.30
2022-12-26T07:24:42.527Z,6.97
2022-12-26T07:27:10.619Z,7.43
2022-12-26T07:29:38.661Z,6.67
2022-12-26T07:32:08.267Z,7.43
2022-12-26T07:34:36.366Z,7.23
2022-12-26T07:37:04.647Z,6.77
2022-12-26T07:39:32.720Z,6.77
2022-12-26T07:42:00.900Z,6.37
2022-12-26T07:44:30.316Z,6.23
2022-12-26T07:46:59.381Z,6.57
2022-12-26T07:49:28.871Z,6.63
2022-12-26T07:51:56.916Z,6.13
2022-12-26T07:54:24.953Z,5.30
2022-12-26T07:56:53.037Z,5.77
2022-12-26T07:59:21.146Z,5.37
2022-12-26T08:01:49.479Z,5.60
2022-12-26T08:04:17.699Z,5.93
2022-12-26T08:06:48.583Z,5.10
2022-12-26T08:09:17.357Z,5.10
2022-12-26T08:11:45.681Z,5.60
2022-12-26T08:14:16.668Z,4.47
2022-12-26T08:16:51.168Z,4.77
2022-12-26T08:19:21.149Z,4.80
2022-12-26T08:21:50.572Z,4.70
2022-12-26T08:24:18.715Z,5.13
2022-12-26T08:26:46.835Z,4.63
2022-12-26T08:29:14.918Z,4.10
2022-12-26T08:31:43.111Z,3.90
2022-12-26T08:34:11.629Z,3.80
2022-12-26T08:36:39.722Z,3.80
2022-12-26T08:39:09.427Z,3.73
2022-12-26T08:41:37.513Z,4.20
2022-12-26T08:46:54.095Z,3.17
2022-12-26T08:49:25.081Z,3.60
2022-12-26T08:51:53.263Z,3.50
2022-12-26T08:54:22.661Z,3.20
2022-12-26T08:56:50.717Z,3.57
2022-12-26T08:59:18.917Z,3.10
2022-12-26T09:01:47.072Z,2.60
2022-12-26T09:04:15.397Z,3.20
2022-12-26T09:06:43.537Z,2.57
2022-12-26T09:09:13.021Z,2.33
2022-12-26T09:11:43.214Z,2.67
2022-12-26T09:14:11.995Z,2.50
2022-12-26T09:16:49.758Z,3.07
2022-12-26T09:19:19.428Z,2.37
2022-12-26T09:21:48.607Z,2.80
2022-12-26T09:24:18.924Z,2.30
2022-12-26T09:26:48.401Z,2.27
2022-12-26T09:29:17.844Z,2.07
2022-12-26T09:31:45.876Z,2.27
2022-12-26T09:34:13.950Z,2.10
2022-12-26T09:36:41.983Z,2.20
2022-12-26T09:39:12.309Z,3.17
2022-12-26T09:41:55.118Z,1.87
2022-12-26T09:44:29.130Z,1.80
2022-12-26T09:47:08.792Z,2.27
2022-12-26T09:49:39.687Z,1.93
2022-12-26T09:52:13.973Z,2.00
2022-12-26T09:54:46.021Z,2.10
2022-12-26T09:57:17.976Z,2.07
2022-12-26T09:59:51.258Z,1.97
2022-12-26T10:02:22.459Z,2.10
2022-12-26T10:04:51.063Z,2.00
2022-12-26T10:07:26.812Z,1.97
2022-12-26T10:10:09.151Z,2.10
2022-12-26T10:12:42.798Z,2.47
2022-12-26T10:15:23.783Z,3.43
2022-12-26T10:18:00.496Z,2.50
2022-12-26T10:20:35.564Z,2.57
2022-12-26T10:23:19.433Z,3.13
2022-12-26T10:25:49.625Z,2.13
2022-12-26T10:28:29.200Z,2.37
2022-12-26T10:31:00.461Z,1.90
2022-12-26T10:33:38.929Z,1.80
2022-12-26T10:36:07.612Z,1.70
2022-12-26T10:38:39.929Z,1.70
2022-12-26T10:41:17.649Z,1.93
2022-12-26T10:43:47.345Z,1.50
2022-12-26T10:46:40.304Z,2.00
2022-12-26T10:49:12.186Z,1.83
2022-12-26T10:51:40.714Z,2.23
2022-12-26T10:54:16.849Z,1.63
2022-12-26T10:56:46.433Z,2.37
2022-12-26T10:59:19.490Z,2.03
2022-12-26T11:01:50.959Z,2.70
2022-12-26T11:04:53.040Z,2.03
2022-12-26T11:07:13.026Z,1.50
2022-12-26T11:09:44.013Z,1.90
2022-12-26T11:12:22.220Z,2.77
2022-12-26T11:14:58.140Z,2.63
2022-12-26T11:17:28.843Z,2.57
2022-12-26T11:20:25.035Z,1.73
2022-12-26T11:22:56.189Z,1.90
2022-12-26T11:25:27.605Z,1.30
2022-12-26T11:27:57.751Z,1.57
2022-12-26T11:30:30.557Z,3.63
2022-12-26T11:33:19.403Z,2.00
2022-12-26T11:35:51.321Z,2.00
2022-12-26T11:38:44.143Z,1.80
2022-12-26T11:41:34.447Z,1.90
2022-12-26T11:44:13.278Z,1.90
2022-12-26T11:46:45.024Z,1.70
2022-12-26T11:49:20.548Z,1.30
2022-12-26T11:51:55.611Z,1.23
2022-12-26T11:54:31.050Z,1.23
2022-12-26T11:57:12.276Z,1.10
2022-12-26T11:59:40.653Z,1.70
2022-12-26T12:02:29.851Z,1.33
2022-12-26T12:05:08.054Z,1.60
2022-12-26T12:07:58.610Z,1.23
2022-12-26T12:10:47.953Z,1.20
2022-12-26T12:13:37.868Z,1.43
2022-12-26T12:16:16.289Z,1.67
2022-12-26T12:18:55.770Z,1.60
2022-12-26T12:21:35.654Z,1.47
2022-12-26T12:24:35.507Z,1.40
2022-12-26T12:27:11.705Z,1.07
2022-12-26T12:29:53.911Z,1.07
2022-12-26T12:32:34.439Z,1.50
2022-12-26T12:35:22.179Z,1.40
2022-12-26T12:45:36.655Z,1.40
2022-12-26T12:48:37.903Z,1.40
2022-12-26T12:51:20.592Z,1.00
2022-12-26T12:54:05.927Z,1.10
2022-12-26T12:56:43.541Z,1.40
2022-12-26T12:59:23.354Z,1.40
2022-12-26T13:01:56.737Z,1.37
2022-12-26T13:04:29.350Z,2.37
2022-12-26T13:07:06.246Z,1.50
2022-12-26T13:09:39.009Z,1.93
2022-12-26T13:20:16.202Z,2.17
2022-12-26T13:23:11.340Z,1.50
2022-12-26T13:25:44.641Z,1.57
2022-12-26T13:28:28.934Z,1.30
2022-12-26T13:30:57.779Z,1.20
2022-12-26T13:33:27.231Z,1.30
2022-12-26T13:36:02.211Z,1.20
2022-12-26T13:39:03.861Z,1.50
2022-12-26T13:41:51.159Z,1.17
2022-12-26T13:44:27.719Z,1.50
2022-12-26T13:46:57.978Z,1.43
2022-12-26T13:49:36.482Z,1.20
2022-12-26T13:52:33.912Z,1.30
2022-12-26T13:55:34.850Z,3.10
2022-12-26T13:58:29.715Z,1.33
2022-12-26T14:01:04.301Z,1.83
2022-12-26T14:04:02.962Z,1.90
2022-12-26T14:06:55.732Z,1.90
2022-12-26T14:09:41.277Z,1.10
2022-12-26T14:12:31.733Z,2.70
2022-12-26T14:15:10.113Z,1.50
2022-12-26T14:17:49.364Z,2.30
2022-12-26T14:20:38.806Z,1.50
2022-12-26T14:23:22.066Z,1.63
2022-12-26T14:25:57.521Z,1.43
2022-12-26T14:28:32.185Z,1.33
2022-12-26T14:31:18.016Z,1.27
2022-12-26T14:33:52.106Z,2.27
2022-12-26T14:36:35.696Z,1.33
2022-12-26T14:39:13.923Z,1.33
2022-12-26T14:42:33.446Z,0.90
2022-12-26T14:45:03.175Z,1.20
2022-12-26T14:47:43.442Z,0.90
2022-12-26T14:50:37.789Z,1.60
2022-12-26T14:53:36.037Z,2.07
2022-12-26T14:56:25.075Z,0.90
2022-12-26T14:58:54.025Z,0.67
2022-12-26T15:01:51.352Z,0.97
2022-12-26T15:04:39.734Z,0.80
2022-12-26T15:07:46.544Z,1.00
2022-12-26T15:11:11.847Z,1.87
2022-12-26T15:14:01.990Z,1.00
2022-12-26T15:16:42.839Z,1.03
2022-12-26T15:19:50.378Z,0.93
2022-12-26T15:22:50.354Z,1.73
2022-12-26T15:25:48.313Z,1.27
2022-12-26T15:28:43.750Z,1.20
2022-12-26T15:31:28.414Z,1.40
2022-12-26T15:34:03.730Z,1.50
2022-12-26T15:36:42.401Z,1.00
2022-12-26T15:39:23.328Z,1.37
2022-12-26T15:42:01.103Z,1.13
2022-12-26T15:44:33.476Z,1.30
2022-12-26T15:47:15.152Z,1.37
2022-12-26T15:49:57.271Z,1.20
2022-12-26T15:52:38.010Z,0.97
2022-12-26T15:55:27.271Z,1.00
2022-12-26T15:58:01.649Z,0.90
2022-12-26T16:00:33.400Z,0.93
2022-12-26T16:03:23.412Z,1.00
2022-12-26T16:06:00.328Z,1.10
2022-12-26T16:08:49.218Z,1.30
2022-12-26T16:11:21.822Z,1.30
2022-12-26T16:13:57.179Z,1.50
2022-12-26T16:16:28.179Z,1.53
2022-12-26T16:18:56.678Z,1.03
2022-12-26T16:21:46.927Z,0.97
2022-12-26T16:24:18.397Z,1.50
2022-12-26T16:26:48.466Z,1.73
2022-12-26T16:29:20.415Z,2.13
2022-12-26T16:31:48.760Z,1.90
2022-12-26T16:34:19.569Z,1.67
2022-12-26T16:36:50.434Z,1.47
2022-12-26T16:39:23.348Z,2.03
2022-12-26T16:42:02.625Z,2.00
2022-12-26T16:44:35.631Z,2.30
2022-12-26T16:47:06.794Z,2.60
2022-12-26T16:49:35.878Z,2.77
2022-12-26T16:52:03.939Z,2.40
2022-12-26T16:54:39.310Z,2.20
2022-12-26T16:57:12.876Z,2.23
2022-12-26T16:59:53.850Z,2.27
2022-12-26T17:02:26.382Z,2.00
2022-12-26T17:05:00.360Z,2.00
2022-12-26T17:07:32.281Z,1.80
2022-12-26T17:10:01.991Z,2.33
2022-12-26T17:12:35.304Z,2.87
2022-12-26T17:15:06.131Z,2.90
2022-12-26T17:17:35.983Z,2.73
2022-12-26T17:20:34.201Z,2.63
2022-12-26T17:23:35.866Z,2.47
2022-12-26T17:26:24.297Z,2.20
2022-12-26T17:28:53.982Z,1.90
2022-12-26T17:31:31.427Z,1.80
2022-12-26T17:34:00.416Z,2.30
2022-12-26T17:37:16.566Z,1.90
2022-12-26T17:39:27.323Z,2.30
2022-12-26T17:41:57.117Z,1.87
2022-12-26T17:44:37.551Z,2.13
2022-12-26T17:47:21.424Z,1.90
2022-12-26T17:49:50.483Z,1.70
2022-12-26T17:52:21.635Z,1.57
2022-12-26T17:54:50.505Z,1.70
2022-12-26T17:57:20.833Z,2.20
2022-12-26T17:59:51.740Z,1.70
2022-12-26T18:02:20.248Z,1.43
2022-12-26T18:04:50.059Z,1.30
2022-12-26T18:07:25.742Z,1.60
2022-12-26T18:09:58.756Z,1.93
2022-12-26T18:12:26.797Z,1.80
2022-12-26T18:15:01.628Z,1.80
2022-12-26T18:17:32.781Z,1.93
2022-12-26T18:20:00.843Z,1.30
2022-12-26T18:22:29.002Z,1.67
2022-12-26T18:24:57.043Z,1.87
2022-12-26T18:27:29.412Z,2.10
2022-12-26T18:29:58.924Z,1.70
2022-12-26T18:32:29.332Z,1.80
2022-12-26T18:34:57.801Z,1.73
2022-12-26T18:37:28.807Z,1.87
2022-12-26T18:39:57.096Z,1.43
2022-12-26T18:42:26.296Z,1.90
2022-12-26T18:44:54.532Z,1.53
2022-12-26T18:47:24.807Z,2.30
2022-12-26T18:49:52.852Z,1.90
2022-12-26T18:52:20.897Z,2.00
2022-12-26T18:54:49.030Z,2.77
2022-12-26T18:57:20.127Z,2.07
2022-12-26T18:59:49.077Z,1.67
2022-12-26T19:02:18.506Z,2.07
2022-12-26T19:04:48.945Z,2.37
2022-12-26T19:07:20.360Z,2.20
2022-12-26T19:09:50.642Z,2.13
2022-12-26T19:12:19.052Z,1.83
2022-12-26T19:14:47.251Z,2.30
2022-12-26T19:17:16.160Z,1.70
2022-12-26T19:19:44.549Z,1.73
2022-12-26T19:22:13.994Z,1.90
2022-12-26T19:24:42.011Z,1.83
2022-12-26T19:27:10.016Z,1.67
2022-12-26T19:29:38.209Z,2.30
2022-12-26T19:32:06.559Z,1.80
2022-12-26T19:34:34.785Z,1.37
2022-12-26T19:37:02.815Z,1.50
2022-12-26T19:39:32.275Z,1.87
2022-12-26T19:42:00.466Z,1.50
2022-12-26T19:44:30.031Z,2.33
2022-12-26T19:47:12.095Z,1.93
2022-12-26T19:49:41.250Z,1.97
2022-12-26T19:52:09.342Z,1.67
2022-12-26T19:54:39.168Z,1.80
2022-12-26T19:57:07.518Z,1.90
2022-12-26T19:59:35.712Z,1.93
2022-12-26T20:02:04.116Z,1.80
2022-12-26T20:04:32.442Z,1.60
2022-12-26T20:07:01.265Z,1.47
2022-12-26T20:09:29.393Z,1.63
2022-12-26T20:11:58.898Z,1.40
2022-12-26T20:14:28.523Z,1.70
2022-12-26T20:17:06.740Z,2.23
2022-12-26T20:19:36.526Z,2.30
2022-12-26T20:22:05.777Z,2.00
2022-12-26T20:24:34.117Z,1.93
2022-12-26T20:27:06.124Z,1.73
2022-12-26T20:29:34.308Z,2.73
2022-12-26T20:32:02.382Z,3.30
2022-12-26T20:34:30.408Z,1.83
2022-12-26T20:36:58.536Z,1.80
2022-12-26T20:39:27.244Z,2.23
2022-12-26T20:41:55.365Z,2.03
2022-12-26T20:44:25.545Z,1.93
2022-12-26T20:46:55.282Z,2.07
2022-12-26T20:49:23.324Z,2.23
2022-12-26T20:51:51.442Z,2.00
2022-12-26T20:54:19.507Z,1.77
2022-12-26T20:56:47.688Z,2.50
2022-12-26T20:59:15.733Z,2.50
2022-12-26T21:01:45.431Z,2.37
2022-12-26T21:04:19.909Z,2.10
2022-12-26T21:06:50.345Z,2.63
2022-12-26T21:09:18.724Z,2.00
2022-12-26T21:11:46.856Z,2.77
2022-12-26T21:14:17.590Z,2.70
2022-12-26T21:16:49.554Z,2.73
2022-12-26T21:19:18.895Z,2.07
2022-12-26T21:21:49.307Z,2.30
2022-12-26T21:24:23.716Z,2.20
2022-12-26T21:26:52.042Z,3.17
2022-12-26T21:29:22.207Z,2.47
2022-12-26T21:31:52.488Z,2.80
2022-12-26T21:34:22.970Z,2.43
2022-12-26T21:37:09.340Z,2.63
2022-12-26T21:39:38.850Z,2.07
2022-12-26T21:42:08.913Z,2.93
2022-12-26T21:44:38.164Z,2.50
2022-12-26T21:47:08.895Z,2.27
2022-12-26T21:49:37.355Z,2.53
2022-12-26T21:52:06.357Z,2.90
2022-12-26T21:54:52.229Z,2.43
2022-12-26T21:57:20.633Z,2.23
2022-12-26T21:59:58.646Z,2.60
2022-12-26T22:02:47.843Z,2.23
2022-12-26T22:05:16.805Z,2.50
2022-12-26T22:07:45.056Z,2.20
2022-12-26T22:10:29.502Z,3.10
2022-12-26T22:13:00.225Z,2.20
2022-12-26T22:15:45.801Z,2.57
2022-12-26T22:18:17.274Z,3.10
2022-12-26T22:24:36.334Z,2.30
2022-12-26T22:27:04.547Z,2.33
2022-12-26T22:29:32.609Z,2.67
2022-12-26T22:32:00.705Z,2.50
2022-12-26T22:34:30.166Z,2.73
2022-12-26T22:36:58.237Z,2.23
2022-12-26T22:39:26.438Z,2.73
2022-12-26T22:41:58.965Z,2.80
2022-12-26T22:44:30.280Z,2.90
2022-12-26T22:46:58.348Z,2.80
2022-12-26T22:49:26.621Z,2.67
2022-12-26T22:51:56.300Z,2.50
2022-12-26T22:54:24.457Z,2.47
2022-12-26T22:56:52.733Z,3.77
2022-12-26T22:59:57.822Z,3.60
2022-12-26T23:02:11.445Z,2.70
2022-12-26T23:04:40.128Z,2.80
2022-12-26T23:07:15.108Z,3.13
2022-12-26T23:09:44.941Z,2.80
2022-12-26T23:12:31.039Z,2.60
2022-12-26T23:14:59.362Z,2.57
2022-12-26T23:17:45.964Z,2.80
2022-12-26T23:20:32.922Z,3.43
2022-12-26T23:23:03.359Z,2.50
2022-12-26T23:25:31.913Z,2.87
2022-12-26T23:28:17.290Z,2.67
2022-12-26T23:30:45.410Z,3.23
2022-12-26T23:33:13.466Z,3.10
2022-12-26T23:35:41.572Z,2.67
2022-12-26T23:38:11.072Z,3.07
2022-12-26T23:40:39.143Z,3.30
2022-12-26T23:43:07.246Z,3.30
2022-12-26T23:45:35.320Z,3.47
2022-12-26T23:48:03.387Z,2.97
2022-12-26T23:50:31.490Z,3.90
2022-12-26T23:52:59.570Z,3.10
2022-12-26T23:55:29.007Z,3.63
2022-12-26T23:57:57.385Z,3.57
